sensor_id;sensor_type;location;lat;lon;timestamp;P1;durP1;ratioP1;P2;durP2;ratioP2
71969;SDS011;59838;52.152;5.436;2022-12-16T00:01:23;27.85;;;13.75;;
71969;SDS011;59838;52.152;5.436;2022-12-16T00:03:52;27.95;;;15.52;;
71969;SDS011;59838;52.152;5.436;2022-12-16T00:06:21;25.60;;;13.37;;
71969;SDS011;59838;52.152;5.436;2022-12-16T00:08:49;28.38;;;13.85;;
71969;SDS011;59838;52.152;5.436;2022-12-16T00:11:17;31.15;;;14.98;;
71969;SDS011;59838;52.152;5.436;2022-12-16T00:13:43;28.02;;;13.93;;
71969;SDS011;59838;52.152;5.436;2022-12-16T00:16:13;31.80;;;14.75;;
71969;SDS011;59838;52.152;5.436;2022-12-16T00:18:43;29.80;;;15.27;;
71969;SDS011;59838;52.152;5.436;2022-12-16T00:21:10;28.52;;;14.45;;
71969;SDS011;59838;52.152;5.436;2022-12-16T00:23:36;27.90;;;14.77;;
71969;SDS011;59838;52.152;5.436;2022-12-16T00:26:09;27.83;;;13.18;;
71969;SDS011;59838;52.152;5.436;2022-12-16T00:28:36;29.30;;;13.75;;
71969;SDS011;59838;52.152;5.436;2022-12-16T00:31:03;30.00;;;14.67;;
71969;SDS011;59838;52.152;5.436;2022-12-16T00:33:30;30.60;;;14.40;;
71969;SDS011;59838;52.152;5.436;2022-12-16T00:35:58;34.25;;;15.65;;
71969;SDS011;59838;52.152;5.436;2022-12-16T00:38:25;30.20;;;14.23;;
71969;SDS011;59838;52.152;5.436;2022-12-16T00:40:51;26.08;;;13.75;;
71969;SDS011;59838;52.152;5.436;2022-12-16T00:43:18;28.77;;;13.03;;
71969;SDS011;59838;52.152;5.436;2022-12-16T00:45:45;28.70;;;15.15;;
71969;SDS011;59838;52.152;5.436;2022-12-16T00:48:12;27.48;;;13.88;;
71969;SDS011;59838;52.152;5.436;2022-12-16T00:50:38;28.60;;;12.80;;
71969;SDS011;59838;52.152;5.436;2022-12-16T00:53:04;31.10;;;13.95;;
71969;SDS011;59838;52.152;5.436;2022-12-16T00:55:31;24.03;;;12.17;;
71969;SDS011;59838;52.152;5.436;2022-12-16T00:57:58;28.90;;;14.48;;
71969;SDS011;59838;52.152;5.436;2022-12-16T01:00:24;31.35;;;13.48;;
71969;SDS011;59838;52.152;5.436;2022-12-16T01:02:52;23.33;;;12.68;;
71969;SDS011;59838;52.152;5.436;2022-12-16T01:05:20;30.67;;;14.35;;
71969;SDS011;59838;52.152;5.436;2022-12-16T01:07:55;28.93;;;13.30;;
71969;SDS011;59838;52.152;5.436;2022-12-16T01:10:22;29.52;;;14.00;;
71969;SDS011;59838;52.152;5.436;2022-12-16T01:12:50;28.65;;;14.00;;
71969;SDS011;59838;52.152;5.436;2022-12-16T01:15:17;26.20;;;12.95;;
71969;SDS011;59838;52.152;5.436;2022-12-16T01:17:44;34.65;;;15.52;;
71969;SDS011;59838;52.152;5.436;2022-12-16T01:20:11;31.47;;;14.93;;
71969;SDS011;59838;52.152;5.436;2022-12-16T01:22:39;28.42;;;13.90;;
71969;SDS011;59838;52.152;5.436;2022-12-16T01:25:06;29.83;;;14.73;;
71969;SDS011;59838;52.152;5.436;2022-12-16T01:27:33;26.05;;;14.98;;
71969;SDS011;59838;52.152;5.436;2022-12-16T01:30:00;31.58;;;14.55;;
71969;SDS011;59838;52.152;5.436;2022-12-16T01:32:26;33.50;;;15.33;;
71969;SDS011;59838;52.152;5.436;2022-12-16T01:34:53;24.70;;;13.10;;
71969;SDS011;59838;52.152;5.436;2022-12-16T01:37:21;24.52;;;13.13;;
71969;SDS011;59838;52.152;5.436;2022-12-16T01:39:48;30.35;;;13.90;;
71969;SDS011;59838;52.152;5.436;2022-12-16T01:42:16;31.90;;;16.00;;
71969;SDS011;59838;52.152;5.436;2022-12-16T01:44:45;25.33;;;13.63;;
71969;SDS011;59838;52.152;5.436;2022-12-16T01:47:18;30.35;;;13.68;;
71969;SDS011;59838;52.152;5.436;2022-12-16T01:52:22;32.00;;;15.10;;
71969;SDS011;59838;52.152;5.436;2022-12-16T01:54:55;33.05;;;14.60;;
71969;SDS011;59838;52.152;5.436;2022-12-16T01:57:28;26.17;;;12.83;;
71969;SDS011;59838;52.152;5.436;2022-12-16T02:00:03;21.92;;;12.55;;
71969;SDS011;59838;52.152;5.436;2022-12-16T02:02:32;25.52;;;11.68;;
71969;SDS011;59838;52.152;5.436;2022-12-16T02:04:59;19.98;;;10.77;;
71969;SDS011;59838;52.152;5.436;2022-12-16T02:07:50;17.52;;;10.40;;
71969;SDS011;59838;52.152;5.436;2022-12-16T02:10:17;18.17;;;9.73;;
71969;SDS011;59838;52.152;5.436;2022-12-16T02:12:53;15.10;;;8.70;;
71969;SDS011;59838;52.152;5.436;2022-12-16T02:26:49;13.38;;;6.90;;
71969;SDS011;59838;52.152;5.436;2022-12-16T02:32:32;10.80;;;6.85;;
71969;SDS011;59838;52.152;5.436;2022-12-16T02:35:53;15.02;;;7.60;;
71969;SDS011;59838;52.152;5.436;2022-12-16T02:41:02;17.83;;;8.25;;
71969;SDS011;59838;52.152;5.436;2022-12-16T02:43:49;15.65;;;8.43;;
71969;SDS011;59838;52.152;5.436;2022-12-16T02:46:21;17.17;;;9.15;;
71969;SDS011;59838;52.152;5.436;2022-12-16T02:48:51;22.02;;;10.20;;
71969;SDS011;59838;52.152;5.436;2022-12-16T02:51:17;20.37;;;9.87;;
71969;SDS011;59838;52.152;5.436;2022-12-16T02:53:44;24.65;;;12.20;;
71969;SDS011;59838;52.152;5.436;2022-12-16T03:01:53;23.48;;;13.48;;
71969;SDS011;59838;52.152;5.436;2022-12-16T03:04:50;25.57;;;12.60;;
71969;SDS011;59838;52.152;5.436;2022-12-16T03:07:18;23.75;;;11.93;;
71969;SDS011;59838;52.152;5.436;2022-12-16T03:09:49;25.33;;;12.23;;
71969;SDS011;59838;52.152;5.436;2022-12-16T03:12:18;25.38;;;11.55;;
71969;SDS011;59838;52.152;5.436;2022-12-16T03:14:47;19.52;;;12.32;;
71969;SDS011;59838;52.152;5.436;2022-12-16T03:17:17;27.43;;;11.37;;
71969;SDS011;59838;52.152;5.436;2022-12-16T03:19:48;23.15;;;11.30;;
71969;SDS011;59838;52.152;5.436;2022-12-16T03:22:22;24.38;;;12.18;;
71969;SDS011;59838;52.152;5.436;2022-12-16T03:24:54;21.58;;;11.80;;
71969;SDS011;59838;52.152;5.436;2022-12-16T03:27:26;24.02;;;11.13;;
71969;SDS011;59838;52.152;5.436;2022-12-16T03:32:33;29.00;;;10.77;;
71969;SDS011;59838;52.152;5.436;2022-12-16T03:35:24;22.83;;;11.98;;
71969;SDS011;59838;52.152;5.436;2022-12-16T03:38:10;28.80;;;12.77;;
71969;SDS011;59838;52.152;5.436;2022-12-16T03:40:40;20.88;;;11.55;;
71969;SDS011;59838;52.152;5.436;2022-12-16T03:43:08;28.47;;;13.13;;
71969;SDS011;59838;52.152;5.436;2022-12-16T03:45:37;24.35;;;11.40;;
71969;SDS011;59838;52.152;5.436;2022-12-16T03:48:09;24.05;;;12.27;;
71969;SDS011;59838;52.152;5.436;2022-12-16T03:50:38;31.95;;;12.25;;
71969;SDS011;59838;52.152;5.436;2022-12-16T03:53:05;26.92;;;12.18;;
71969;SDS011;59838;52.152;5.436;2022-12-16T03:55:32;21.90;;;11.70;;
71969;SDS011;59838;52.152;5.436;2022-12-16T03:57:58;22.38;;;11.07;;
71969;SDS011;59838;52.152;5.436;2022-12-16T04:00:25;24.50;;;11.43;;
71969;SDS011;59838;52.152;5.436;2022-12-16T04:02:51;19.85;;;11.23;;
71969;SDS011;59838;52.152;5.436;2022-12-16T04:05:19;23.92;;;12.20;;
71969;SDS011;59838;52.152;5.436;2022-12-16T04:07:45;22.70;;;11.70;;
71969;SDS011;59838;52.152;5.436;2022-12-16T04:10:12;27.38;;;11.82;;
71969;SDS011;59838;52.152;5.436;2022-12-16T04:12:38;20.30;;;11.68;;
71969;SDS011;59838;52.152;5.436;2022-12-16T04:15:23;20.10;;;11.35;;
71969;SDS011;59838;52.152;5.436;2022-12-16T04:18:15;21.00;;;10.43;;
71969;SDS011;59838;52.152;5.436;2022-12-16T04:21:02;21.33;;;10.90;;
71969;SDS011;59838;52.152;5.436;2022-12-16T04:23:53;23.27;;;10.88;;
71969;SDS011;59838;52.152;5.436;2022-12-16T04:26:41;16.83;;;10.45;;
71969;SDS011;59838;52.152;5.436;2022-12-16T04:29:26;19.45;;;10.20;;
71969;SDS011;59838;52.152;5.436;2022-12-16T04:31:53;20.85;;;10.77;;
71969;SDS011;59838;52.152;5.436;2022-12-16T04:34:19;17.60;;;10.10;;
71969;SDS011;59838;52.152;5.436;2022-12-16T04:36:58;20.00;;;10.13;;
71969;SDS011;59838;52.152;5.436;2022-12-16T04:39:45;25.23;;;10.52;;
71969;SDS011;59838;52.152;5.436;2022-12-16T04:42:31;22.35;;;10.77;;
71969;SDS011;59838;52.152;5.436;2022-12-16T04:45:16;17.52;;;9.85;;
71969;SDS011;59838;52.152;5.436;2022-12-16T04:48:02;17.60;;;10.00;;
71969;SDS011;59838;52.152;5.436;2022-12-16T04:50:47;18.58;;;9.50;;
71969;SDS011;59838;52.152;5.436;2022-12-16T04:53:32;21.65;;;11.60;;
71969;SDS011;59838;52.152;5.436;2022-12-16T04:56:17;19.70;;;10.88;;
71969;SDS011;59838;52.152;5.436;2022-12-16T04:59:02;18.73;;;10.10;;
71969;SDS011;59838;52.152;5.436;2022-12-16T05:01:47;19.53;;;9.77;;
71969;SDS011;59838;52.152;5.436;2022-12-16T05:04:32;17.08;;;9.30;;
71969;SDS011;59838;52.152;5.436;2022-12-16T05:07:17;17.55;;;9.40;;
71969;SDS011;59838;52.152;5.436;2022-12-16T05:10:04;18.67;;;10.50;;
71969;SDS011;59838;52.152;5.436;2022-12-16T05:12:52;21.10;;;9.90;;
71969;SDS011;59838;52.152;5.436;2022-12-16T05:15:38;20.57;;;9.53;;
71969;SDS011;59838;52.152;5.436;2022-12-16T05:18:24;18.95;;;9.88;;
71969;SDS011;59838;52.152;5.436;2022-12-16T05:21:09;17.70;;;9.82;;
71969;SDS011;59838;52.152;5.436;2022-12-16T05:23:54;20.33;;;8.45;;
71969;SDS011;59838;52.152;5.436;2022-12-16T05:26:39;14.75;;;9.10;;
71969;SDS011;59838;52.152;5.436;2022-12-16T05:29:24;17.33;;;8.83;;
71969;SDS011;59838;52.152;5.436;2022-12-16T05:32:09;17.50;;;9.43;;
71969;SDS011;59838;52.152;5.436;2022-12-16T05:34:54;16.20;;;9.68;;
71969;SDS011;59838;52.152;5.436;2022-12-16T05:37:39;21.23;;;10.23;;
71969;SDS011;59838;52.152;5.436;2022-12-16T05:40:24;15.43;;;8.68;;
71969;SDS011;59838;52.152;5.436;2022-12-16T05:43:09;15.53;;;8.50;;
71969;SDS011;59838;52.152;5.436;2022-12-16T05:45:54;22.40;;;8.35;;
71969;SDS011;59838;52.152;5.436;2022-12-16T05:48:39;18.50;;;8.55;;
71969;SDS011;59838;52.152;5.436;2022-12-16T05:51:24;13.68;;;7.32;;
71969;SDS011;59838;52.152;5.436;2022-12-16T05:54:09;19.00;;;8.63;;
71969;SDS011;59838;52.152;5.436;2022-12-16T05:56:53;18.00;;;8.27;;
71969;SDS011;59838;52.152;5.436;2022-12-16T05:59:38;14.48;;;8.13;;
71969;SDS011;59838;52.152;5.436;2022-12-16T06:02:23;12.25;;;7.57;;
71969;SDS011;59838;52.152;5.436;2022-12-16T06:05:08;16.08;;;7.25;;
71969;SDS011;59838;52.152;5.436;2022-12-16T06:07:53;13.35;;;7.70;;
71969;SDS011;59838;52.152;5.436;2022-12-16T06:10:38;12.77;;;7.33;;
71969;SDS011;59838;52.152;5.436;2022-12-16T06:13:23;11.85;;;6.43;;
71969;SDS011;59838;52.152;5.436;2022-12-16T06:16:08;13.55;;;6.93;;
71969;SDS011;59838;52.152;5.436;2022-12-16T06:18:53;13.10;;;6.45;;
71969;SDS011;59838;52.152;5.436;2022-12-16T06:21:38;12.05;;;6.20;;
71969;SDS011;59838;52.152;5.436;2022-12-16T06:24:22;11.30;;;6.27;;
71969;SDS011;59838;52.152;5.436;2022-12-16T06:27:07;15.88;;;7.88;;
71969;SDS011;59838;52.152;5.436;2022-12-16T06:29:52;14.00;;;7.05;;
71969;SDS011;59838;52.152;5.436;2022-12-16T06:32:37;10.48;;;6.57;;
71969;SDS011;59838;52.152;5.436;2022-12-16T06:35:32;12.80;;;6.47;;
71969;SDS011;59838;52.152;5.436;2022-12-16T06:38:17;13.00;;;6.10;;
71969;SDS011;59838;52.152;5.436;2022-12-16T06:41:02;10.38;;;5.50;;
71969;SDS011;59838;52.152;5.436;2022-12-16T06:43:46;10.77;;;6.00;;
71969;SDS011;59838;52.152;5.436;2022-12-16T06:46:31;12.82;;;6.38;;
71969;SDS011;59838;52.152;5.436;2022-12-16T06:49:16;11.30;;;6.03;;
71969;SDS011;59838;52.152;5.436;2022-12-16T06:52:01;9.03;;;4.97;;
71969;SDS011;59838;52.152;5.436;2022-12-16T06:54:48;14.20;;;6.15;;
71969;SDS011;59838;52.152;5.436;2022-12-16T06:57:32;9.88;;;6.00;;
71969;SDS011;59838;52.152;5.436;2022-12-16T07:00:17;13.23;;;5.97;;
71969;SDS011;59838;52.152;5.436;2022-12-16T07:03:05;15.85;;;6.55;;
71969;SDS011;59838;52.152;5.436;2022-12-16T07:05:53;22.83;;;8.57;;
71969;SDS011;59838;52.152;5.436;2022-12-16T07:08:39;16.17;;;8.30;;
71969;SDS011;59838;52.152;5.436;2022-12-16T07:11:23;16.38;;;8.32;;
71969;SDS011;59838;52.152;5.436;2022-12-16T07:14:08;16.13;;;8.93;;
71969;SDS011;59838;52.152;5.436;2022-12-16T07:16:53;14.85;;;8.43;;
71969;SDS011;59838;52.152;5.436;2022-12-16T07:19:42;15.80;;;8.83;;
71969;SDS011;59838;52.152;5.436;2022-12-16T07:22:27;14.75;;;7.00;;
71969;SDS011;59838;52.152;5.436;2022-12-16T07:25:12;9.82;;;5.75;;
71969;SDS011;59838;52.152;5.436;2022-12-16T07:27:56;11.90;;;5.75;;
71969;SDS011;59838;52.152;5.436;2022-12-16T07:30:42;9.73;;;5.20;;
71969;SDS011;59838;52.152;5.436;2022-12-16T07:33:27;9.30;;;4.67;;
71969;SDS011;59838;52.152;5.436;2022-12-16T07:36:12;7.55;;;4.45;;
71969;SDS011;59838;52.152;5.436;2022-12-16T07:38:57;10.07;;;4.80;;
71969;SDS011;59838;52.152;5.436;2022-12-16T07:41:42;8.02;;;3.72;;
71969;SDS011;59838;52.152;5.436;2022-12-16T07:44:26;6.57;;;3.53;;
71969;SDS011;59838;52.152;5.436;2022-12-16T07:47:11;7.30;;;3.93;;
71969;SDS011;59838;52.152;5.436;2022-12-16T07:49:56;7.68;;;3.60;;
71969;SDS011;59838;52.152;5.436;2022-12-16T07:52:41;6.35;;;3.60;;
71969;SDS011;59838;52.152;5.436;2022-12-16T07:55:26;7.72;;;3.63;;
71969;SDS011;59838;52.152;5.436;2022-12-16T07:58:11;11.63;;;4.03;;
71969;SDS011;59838;52.152;5.436;2022-12-16T08:00:55;8.33;;;4.50;;
71969;SDS011;59838;52.152;5.436;2022-12-16T08:03:40;10.18;;;3.88;;
71969;SDS011;59838;52.152;5.436;2022-12-16T08:06:25;5.88;;;3.10;;
71969;SDS011;59838;52.152;5.436;2022-12-16T08:09:10;4.93;;;2.83;;
71969;SDS011;59838;52.152;5.436;2022-12-16T08:11:55;6.03;;;2.97;;
71969;SDS011;59838;52.152;5.436;2022-12-16T08:14:40;4.63;;;2.40;;
71969;SDS011;59838;52.152;5.436;2022-12-16T08:17:29;8.80;;;2.95;;
71969;SDS011;59838;52.152;5.436;2022-12-16T08:20:14;4.72;;;2.92;;
71969;SDS011;59838;52.152;5.436;2022-12-16T08:22:59;6.93;;;2.97;;
71969;SDS011;59838;52.152;5.436;2022-12-16T08:25:44;5.60;;;2.53;;
71969;SDS011;59838;52.152;5.436;2022-12-16T08:28:29;9.50;;;2.00;;
71969;SDS011;59838;52.152;5.436;2022-12-16T08:31:13;6.32;;;1.88;;
71969;SDS011;59838;52.152;5.436;2022-12-16T08:33:58;8.65;;;3.28;;
71969;SDS011;59838;52.152;5.436;2022-12-16T08:36:43;6.03;;;2.53;;
71969;SDS011;59838;52.152;5.436;2022-12-16T08:39:28;6.85;;;2.65;;
71969;SDS011;59838;52.152;5.436;2022-12-16T08:42:33;3.53;;;2.00;;
71969;SDS011;59838;52.152;5.436;2022-12-16T08:45:18;4.55;;;1.88;;
71969;SDS011;59838;52.152;5.436;2022-12-16T08:48:03;7.60;;;2.85;;
71969;SDS011;59838;52.152;5.436;2022-12-16T08:50:49;6.88;;;1.95;;
71969;SDS011;59838;52.152;5.436;2022-12-16T08:53:33;5.22;;;2.55;;
71969;SDS011;59838;52.152;5.436;2022-12-16T08:56:19;4.13;;;1.70;;
71969;SDS011;59838;52.152;5.436;2022-12-16T08:59:04;7.53;;;2.35;;
71969;SDS011;59838;52.152;5.436;2022-12-16T09:01:50;5.55;;;2.08;;
71969;SDS011;59838;52.152;5.436;2022-12-16T09:04:36;5.90;;;2.17;;
71969;SDS011;59838;52.152;5.436;2022-12-16T09:07:21;6.63;;;2.92;;
71969;SDS011;59838;52.152;5.436;2022-12-16T09:10:05;6.03;;;2.83;;
71969;SDS011;59838;52.152;5.436;2022-12-16T09:12:51;8.50;;;3.30;;
71969;SDS011;59838;52.152;5.436;2022-12-16T09:15:36;11.35;;;3.38;;
71969;SDS011;59838;52.152;5.436;2022-12-16T09:18:21;9.05;;;3.05;;
71969;SDS011;59838;52.152;5.436;2022-12-16T09:21:06;7.10;;;3.28;;
71969;SDS011;59838;52.152;5.436;2022-12-16T09:23:58;4.90;;;1.90;;
71969;SDS011;59838;52.152;5.436;2022-12-16T09:26:43;8.57;;;2.38;;
71969;SDS011;59838;52.152;5.436;2022-12-16T09:29:28;4.50;;;2.08;;
71969;SDS011;59838;52.152;5.436;2022-12-16T09:32:13;5.20;;;1.98;;
71969;SDS011;59838;52.152;5.436;2022-12-16T09:34:57;4.93;;;1.70;;
71969;SDS011;59838;52.152;5.436;2022-12-16T09:37:46;18.63;;;1.87;;
71969;SDS011;59838;52.152;5.436;2022-12-16T09:40:31;6.18;;;1.60;;
71969;SDS011;59838;52.152;5.436;2022-12-16T09:49:50;6.18;;;1.95;;
71969;SDS011;59838;52.152;5.436;2022-12-16T09:52:56;4.00;;;1.50;;
71969;SDS011;59838;52.152;5.436;2022-12-16T09:55:45;4.30;;;1.23;;
71969;SDS011;59838;52.152;5.436;2022-12-16T09:58:38;2.53;;;1.45;;
71969;SDS011;59838;52.152;5.436;2022-12-16T10:01:29;3.90;;;1.27;;
71969;SDS011;59838;52.152;5.436;2022-12-16T10:04:21;3.47;;;1.80;;
71969;SDS011;59838;52.152;5.436;2022-12-16T10:07:07;6.47;;;1.70;;
71969;SDS011;59838;52.152;5.436;2022-12-16T10:10:18;5.28;;;1.85;;
71969;SDS011;59838;52.152;5.436;2022-12-16T10:22:17;2.40;;;1.37;;
71969;SDS011;59838;52.152;5.436;2022-12-16T10:25:21;4.45;;;1.88;;
71969;SDS011;59838;52.152;5.436;2022-12-16T10:28:16;5.65;;;1.60;;
71969;SDS011;59838;52.152;5.436;2022-12-16T10:31:11;3.60;;;1.35;;
71969;SDS011;59838;52.152;5.436;2022-12-16T10:33:59;6.93;;;2.05;;
71969;SDS011;59838;52.152;5.436;2022-12-16T10:36:44;4.00;;;1.80;;
71969;SDS011;59838;52.152;5.436;2022-12-16T10:39:37;6.97;;;1.60;;
71969;SDS011;59838;52.152;5.436;2022-12-16T10:45:28;6.47;;;1.80;;
71969;SDS011;59838;52.152;5.436;2022-12-16T10:48:16;9.25;;;2.33;;
71969;SDS011;59838;52.152;5.436;2022-12-16T10:51:22;4.87;;;1.90;;
71969;SDS011;59838;52.152;5.436;2022-12-16T11:00:38;4.68;;;2.53;;
71969;SDS011;59838;52.152;5.436;2022-12-16T11:03:29;9.05;;;3.83;;
71969;SDS011;59838;52.152;5.436;2022-12-16T11:06:21;6.20;;;3.33;;
71969;SDS011;59838;52.152;5.436;2022-12-16T11:12:27;10.32;;;4.60;;
71969;SDS011;59838;52.152;5.436;2022-12-16T11:15:24;10.32;;;5.07;;
71969;SDS011;59838;52.152;5.436;2022-12-16T11:18:12;8.10;;;4.55;;
71969;SDS011;59838;52.152;5.436;2022-12-16T11:27:02;8.35;;;5.45;;
71969;SDS011;59838;52.152;5.436;2022-12-16T11:29:51;8.80;;;5.65;;
71969;SDS011;59838;52.152;5.436;2022-12-16T11:32:38;7.30;;;5.45;;
71969;SDS011;59838;52.152;5.436;2022-12-16T11:35:27;12.07;;;5.77;;
71969;SDS011;59838;52.152;5.436;2022-12-16T11:38:20;10.02;;;5.30;;
71969;SDS011;59838;52.152;5.436;2022-12-16T11:41:07;10.50;;;6.15;;
71969;SDS011;59838;52.152;5.436;2022-12-16T11:43:56;12.18;;;6.40;;
71969;SDS011;59838;52.152;5.436;2022-12-16T11:46:44;11.95;;;6.40;;
71969;SDS011;59838;52.152;5.436;2022-12-16T11:49:30;13.43;;;6.63;;
71969;SDS011;59838;52.152;5.436;2022-12-16T11:52:18;17.50;;;8.63;;
71969;SDS011;59838;52.152;5.436;2022-12-16T11:55:18;14.05;;;7.93;;
71969;SDS011;59838;52.152;5.436;2022-12-16T11:58:45;14.60;;;6.93;;
71969;SDS011;59838;52.152;5.436;2022-12-16T12:02:17;14.23;;;7.13;;
71969;SDS011;59838;52.152;5.436;2022-12-16T12:04:46;13.77;;;7.23;;
71969;SDS011;59838;52.152;5.436;2022-12-16T12:10:42;18.85;;;8.90;;
71969;SDS011;59838;52.152;5.436;2022-12-16T12:13:45;12.65;;;7.05;;
71969;SDS011;59838;52.152;5.436;2022-12-16T12:16:45;16.48;;;8.65;;
71969;SDS011;59838;52.152;5.436;2022-12-16T12:19:58;15.93;;;8.97;;
71969;SDS011;59838;52.152;5.436;2022-12-16T12:23:00;18.70;;;8.55;;
71969;SDS011;59838;52.152;5.436;2022-12-16T12:25:53;16.67;;;8.43;;
71969;SDS011;59838;52.152;5.436;2022-12-16T12:34:44;17.00;;;8.17;;
71969;SDS011;59838;52.152;5.436;2022-12-16T12:37:52;18.95;;;9.68;;
71969;SDS011;59838;52.152;5.436;2022-12-16T12:40:54;15.23;;;8.20;;
71969;SDS011;59838;52.152;5.436;2022-12-16T12:44:04;15.80;;;8.90;;
71969;SDS011;59838;52.152;5.436;2022-12-16T12:47:07;20.95;;;10.27;;
71969;SDS011;59838;52.152;5.436;2022-12-16T12:50:08;15.73;;;8.80;;
71969;SDS011;59838;52.152;5.436;2022-12-16T12:59:16;16.30;;;10.32;;
71969;SDS011;59838;52.152;5.436;2022-12-16T13:02:11;19.48;;;10.73;;
71969;SDS011;59838;52.152;5.436;2022-12-16T13:05:03;21.60;;;10.70;;
71969;SDS011;59838;52.152;5.436;2022-12-16T13:07:49;17.92;;;9.20;;
71969;SDS011;59838;52.152;5.436;2022-12-16T13:10:35;21.30;;;10.00;;
71969;SDS011;59838;52.152;5.436;2022-12-16T13:13:28;18.20;;;9.63;;
71969;SDS011;59838;52.152;5.436;2022-12-16T13:19:53;22.03;;;10.20;;
71969;SDS011;59838;52.152;5.436;2022-12-16T13:22:39;18.20;;;9.52;;
71969;SDS011;59838;52.152;5.436;2022-12-16T13:25:49;18.63;;;9.68;;
71969;SDS011;59838;52.152;5.436;2022-12-16T13:28:40;20.95;;;10.30;;
71969;SDS011;59838;52.152;5.436;2022-12-16T13:31:27;20.42;;;8.45;;
71969;SDS011;59838;52.152;5.436;2022-12-16T13:37:00;21.60;;;8.75;;
71969;SDS011;59838;52.152;5.436;2022-12-16T13:39:59;17.73;;;9.93;;
71969;SDS011;59838;52.152;5.436;2022-12-16T13:42:49;18.58;;;9.50;;
71969;SDS011;59838;52.152;5.436;2022-12-16T13:45:43;21.00;;;9.25;;
71969;SDS011;59838;52.152;5.436;2022-12-16T13:48:48;20.40;;;9.43;;
71969;SDS011;59838;52.152;5.436;2022-12-16T13:54:25;18.02;;;10.23;;
71969;SDS011;59838;52.152;5.436;2022-12-16T13:57:17;25.23;;;10.02;;
71969;SDS011;59838;52.152;5.436;2022-12-16T14:00:05;19.02;;;9.95;;
71969;SDS011;59838;52.152;5.436;2022-12-16T14:03:02;19.33;;;10.13;;
71969;SDS011;59838;52.152;5.436;2022-12-16T14:05:53;20.38;;;9.30;;
71969;SDS011;59838;52.152;5.436;2022-12-16T14:08:39;17.65;;;9.45;;
71969;SDS011;59838;52.152;5.436;2022-12-16T14:11:47;20.92;;;9.80;;
71969;SDS011;59838;52.152;5.436;2022-12-16T14:14:43;16.85;;;9.20;;
71969;SDS011;59838;52.152;5.436;2022-12-16T14:17:38;16.80;;;8.53;;
71969;SDS011;59838;52.152;5.436;2022-12-16T14:20:35;20.50;;;9.85;;
71969;SDS011;59838;52.152;5.436;2022-12-16T14:23:40;18.40;;;9.68;;
71969;SDS011;59838;52.152;5.436;2022-12-16T14:26:36;18.27;;;10.00;;
71969;SDS011;59838;52.152;5.436;2022-12-16T14:29:23;21.02;;;10.55;;
71969;SDS011;59838;52.152;5.436;2022-12-16T14:32:17;18.73;;;9.77;;
71969;SDS011;59838;52.152;5.436;2022-12-16T14:35:02;27.70;;;11.43;;
71969;SDS011;59838;52.152;5.436;2022-12-16T14:37:49;19.63;;;10.27;;
71969;SDS011;59838;52.152;5.436;2022-12-16T14:40:34;19.98;;;9.68;;
71969;SDS011;59838;52.152;5.436;2022-12-16T14:43:22;21.92;;;11.15;;
71969;SDS011;59838;52.152;5.436;2022-12-16T14:46:42;22.80;;;11.00;;
71969;SDS011;59838;52.152;5.436;2022-12-16T14:49:21;21.15;;;10.48;;
71969;SDS011;59838;52.152;5.436;2022-12-16T14:52:15;20.38;;;10.63;;
71969;SDS011;59838;52.152;5.436;2022-12-16T14:55:18;20.58;;;10.48;;
71969;SDS011;59838;52.152;5.436;2022-12-16T14:58:11;18.27;;;9.35;;
71969;SDS011;59838;52.152;5.436;2022-12-16T15:01:14;18.17;;;9.63;;
71969;SDS011;59838;52.152;5.436;2022-12-16T15:04:05;24.13;;;10.15;;
71969;SDS011;59838;52.152;5.436;2022-12-16T15:06:57;19.30;;;10.20;;
71969;SDS011;59838;52.152;5.436;2022-12-16T15:09:44;19.63;;;10.43;;
71969;SDS011;59838;52.152;5.436;2022-12-16T15:12:39;21.55;;;10.65;;
71969;SDS011;59838;52.152;5.436;2022-12-16T15:21:22;20.40;;;9.10;;
71969;SDS011;59838;52.152;5.436;2022-12-16T15:24:08;21.08;;;9.30;;
71969;SDS011;59838;52.152;5.436;2022-12-16T15:27:13;19.85;;;9.95;;
71969;SDS011;59838;52.152;5.436;2022-12-16T15:33:23;17.02;;;8.77;;
71969;SDS011;59838;52.152;5.436;2022-12-16T15:36:17;20.73;;;10.40;;
71969;SDS011;59838;52.152;5.436;2022-12-16T15:39:27;18.15;;;9.38;;
71969;SDS011;59838;52.152;5.436;2022-12-16T15:42:20;21.23;;;10.60;;
71969;SDS011;59838;52.152;5.436;2022-12-16T15:48:19;19.05;;;9.43;;
71969;SDS011;59838;52.152;5.436;2022-12-16T15:51:19;19.00;;;9.90;;
71969;SDS011;59838;52.152;5.436;2022-12-16T15:54:14;20.20;;;9.80;;
71969;SDS011;59838;52.152;5.436;2022-12-16T15:56:59;23.77;;;10.18;;
71969;SDS011;59838;52.152;5.436;2022-12-16T15:59:55;21.63;;;11.10;;
71969;SDS011;59838;52.152;5.436;2022-12-16T16:02:45;22.20;;;11.07;;
71969;SDS011;59838;52.152;5.436;2022-12-16T16:05:32;22.35;;;10.23;;
71969;SDS011;59838;52.152;5.436;2022-12-16T16:08:19;20.60;;;10.70;;
71969;SDS011;59838;52.152;5.436;2022-12-16T16:11:04;19.60;;;10.60;;
71969;SDS011;59838;52.152;5.436;2022-12-16T16:13:49;20.57;;;10.53;;
71969;SDS011;59838;52.152;5.436;2022-12-16T16:16:39;18.73;;;9.68;;
71969;SDS011;59838;52.152;5.436;2022-12-16T16:19:25;20.25;;;9.88;;
71969;SDS011;59838;52.152;5.436;2022-12-16T16:22:11;22.33;;;11.05;;
71969;SDS011;59838;52.152;5.436;2022-12-16T16:24:58;21.45;;;11.85;;
71969;SDS011;59838;52.152;5.436;2022-12-16T16:27:43;21.77;;;10.60;;
71969;SDS011;59838;52.152;5.436;2022-12-16T16:30:28;25.45;;;11.48;;
71969;SDS011;59838;52.152;5.436;2022-12-16T16:33:14;20.38;;;11.15;;
71969;SDS011;59838;52.152;5.436;2022-12-16T16:35:59;21.65;;;10.73;;
71969;SDS011;59838;52.152;5.436;2022-12-16T16:38:44;21.40;;;10.80;;
71969;SDS011;59838;52.152;5.436;2022-12-16T16:41:29;25.73;;;11.83;;
71969;SDS011;59838;52.152;5.436;2022-12-16T16:44:14;26.05;;;12.93;;
71969;SDS011;59838;52.152;5.436;2022-12-16T16:46:59;24.13;;;11.38;;
71969;SDS011;59838;52.152;5.436;2022-12-16T16:50:05;24.40;;;12.73;;
71969;SDS011;59838;52.152;5.436;2022-12-16T16:52:50;27.73;;;13.70;;
71969;SDS011;59838;52.152;5.436;2022-12-16T16:55:34;24.30;;;11.97;;
71969;SDS011;59838;52.152;5.436;2022-12-16T17:01:12;33.28;;;13.10;;
71969;SDS011;59838;52.152;5.436;2022-12-16T17:03:58;34.50;;;13.57;;
71969;SDS011;59838;52.152;5.436;2022-12-16T17:06:43;23.17;;;13.05;;
71969;SDS011;59838;52.152;5.436;2022-12-16T17:09:29;26.63;;;12.60;;
71969;SDS011;59838;52.152;5.436;2022-12-16T17:12:20;36.95;;;15.02;;
71969;SDS011;59838;52.152;5.436;2022-12-16T17:15:20;26.92;;;13.73;;
71969;SDS011;59838;52.152;5.436;2022-12-16T17:18:07;26.38;;;12.30;;
71969;SDS011;59838;52.152;5.436;2022-12-16T17:20:53;29.20;;;15.23;;
71969;SDS011;59838;52.152;5.436;2022-12-16T17:23:38;29.30;;;13.73;;
71969;SDS011;59838;52.152;5.436;2022-12-16T17:26:23;28.73;;;13.23;;
71969;SDS011;59838;52.152;5.436;2022-12-16T17:29:14;33.28;;;15.90;;
71969;SDS011;59838;52.152;5.436;2022-12-16T17:32:03;30.33;;;15.20;;
71969;SDS011;59838;52.152;5.436;2022-12-16T17:34:48;30.45;;;13.63;;
71969;SDS011;59838;52.152;5.436;2022-12-16T17:37:33;25.97;;;12.57;;
71969;SDS011;59838;52.152;5.436;2022-12-16T17:40:18;26.33;;;13.18;;
71969;SDS011;59838;52.152;5.436;2022-12-16T17:43:03;29.35;;;14.25;;
71969;SDS011;59838;52.152;5.436;2022-12-16T17:46:00;26.13;;;11.48;;
71969;SDS011;59838;52.152;5.436;2022-12-16T17:48:51;31.73;;;14.25;;
71969;SDS011;59838;52.152;5.436;2022-12-16T17:51:37;28.00;;;13.33;;
71969;SDS011;59838;52.152;5.436;2022-12-16T17:54:22;34.60;;;12.90;;